createdAt,value
2019-01-22T00:00:40.006Z,92.10
2019-01-22T00:01:39.986Z,91.91
2019-01-22T00:02:40.002Z,92.19
2019-01-22T00:03:40.023Z,92.47
2019-01-22T00:04:40.042Z,92.10
2019-01-22T00:05:40.043Z,93.13
2019-01-22T00:06:40.033Z,92.95
2019-01-22T00:07:40.046Z,93.04
2019-01-22T00:08:40.123Z,92.95
2019-01-22T00:09:40.068Z,92.10
2019-01-22T00:10:40.077Z,92.10
2019-01-22T00:11:40.183Z,92.66
2019-01-22T00:12:40.114Z,92.66
2019-01-22T00:13:40.094Z,92.47
2019-01-22T00:14:40.119Z,92.57
2019-01-22T00:15:40.165Z,92.66
2019-01-22T00:16:40.109Z,92.66
2019-01-22T00:17:40.131Z,92.85
2019-01-22T00:18:40.127Z,92.66
2019-01-22T00:19:40.130Z,92.95
2019-01-22T00:20:40.151Z,91.91
2019-01-22T00:21:40.153Z,92.66
2019-01-22T00:22:40.171Z,92.76
2019-01-22T00:23:40.211Z,92.38
2019-01-22T00:24:40.230Z,92.95
2019-01-22T00:25:40.189Z,92.66
2019-01-22T00:26:40.187Z,92.57
2019-01-22T00:27:40.255Z,92.57
2019-01-22T00:28:40.207Z,92.66
2019-01-22T00:29:40.257Z,92.66
2019-01-22T00:30:40.226Z,92.38
2019-01-22T00:31:40.239Z,92.85
2019-01-22T00:32:40.252Z,92.57
2019-01-22T00:33:40.309Z,92.57
2019-01-22T00:34:40.256Z,92.76
2019-01-22T00:35:40.281Z,92.66
2019-01-22T00:36:40.290Z,92.66
2019-01-22T00:37:40.330Z,92.47
2019-01-22T00:38:40.287Z,92.76
2019-01-22T00:39:40.325Z,92.38
2019-01-22T00:40:40.313Z,92.47
2019-01-22T00:41:40.333Z,92.57
2019-01-22T00:42:40.406Z,92.76
2019-01-22T00:43:40.337Z,92.47
2019-01-22T00:44:40.353Z,92.85
2019-01-22T00:45:40.359Z,92.95
2019-01-22T00:46:40.372Z,92.57
2019-01-22T00:47:40.428Z,92.76
2019-01-22T00:48:40.419Z,92.66
2019-01-22T00:49:40.391Z,92.66
2019-01-22T00:50:40.404Z,92.95
2019-01-22T00:51:40.417Z,92.57
2019-01-22T00:52:40.409Z,92.66
2019-01-22T00:53:40.449Z,92.66
2019-01-22T00:54:40.427Z,92.85
2019-01-22T00:55:40.437Z,92.85
2019-01-22T00:56:40.442Z,92.57
2019-01-22T00:57:40.451Z,92.85
2019-01-22T00:58:40.504Z,92.85
2019-01-22T00:59:40.476Z,92.76
2019-01-22T01:00:40.526Z,92.66
2019-01-22T01:01:40.482Z,92.95
2019-01-22T01:02:40.515Z,92.95
2019-01-22T01:03:40.505Z,92.95
2019-01-22T01:04:40.518Z,93.23
2019-01-22T01:05:40.530Z,93.04
2019-01-22T01:06:40.546Z,93.13
2019-01-22T01:07:40.571Z,92.38
2019-01-22T01:08:40.542Z,92.76
2019-01-22T01:09:40.550Z,92.76
2019-01-22T01:10:40.579Z,92.85
2019-01-22T01:11:40.573Z,92.85
2019-01-22T01:12:40.587Z,92.38
2019-01-22T01:13:40.591Z,92.85
2019-01-22T01:14:40.592Z,92.47
2019-01-22T01:15:40.611Z,92.85
2019-01-22T01:16:40.626Z,92.76
2019-01-22T01:17:40.689Z,92.85
2019-01-22T01:18:40.637Z,92.66
2019-01-22T01:19:40.640Z,92.38
2019-01-22T01:20:40.660Z,92.66
2019-01-22T01:21:40.697Z,92.95
2019-01-22T01:22:40.665Z,93.04
2019-01-22T01:23:40.676Z,92.95
2019-01-22T01:24:40.695Z,92.47
2019-01-22T01:25:40.691Z,92.66
2019-01-22T01:26:40.692Z,92.47
2019-01-22T01:27:40.699Z,92.66
2019-01-22T01:28:40.757Z,92.47
2019-01-22T01:29:40.730Z,93.23
2019-01-22T01:30:40.767Z,92.95
2019-01-22T01:31:40.732Z,93.13
2019-01-22T01:32:40.750Z,92.66
2019-01-22T01:33:40.758Z,92.47
2019-01-22T01:34:40.818Z,92.47
2019-01-22T01:35:40.804Z,93.04
2019-01-22T01:36:40.794Z,93.13
2019-01-22T01:37:40.801Z,92.38
2019-01-22T01:38:40.826Z,92.47
2019-01-22T01:39:40.825Z,92.76
2019-01-22T01:40:40.820Z,92.85
2019-01-22T01:41:40.822Z,92.38
2019-01-22T01:42:40.849Z,93.04
2019-01-22T01:43:40.853Z,92.85
2019-01-22T01:44:40.864Z,92.85
2019-01-22T01:45:40.883Z,92.29
2019-01-22T01:46:40.877Z,92.57
2019-01-22T01:47:40.889Z,93.13
2019-01-22T01:48:40.878Z,93.04
2019-01-22T01:49:40.905Z,93.13
2019-01-22T01:50:40.904Z,93.23
2019-01-22T01:51:40.937Z,93.61
2019-01-22T01:52:40.931Z,93.04
2019-01-22T01:53:40.950Z,92.29
2019-01-22T01:54:40.937Z,92.66
2019-01-22T01:55:40.939Z,93.32
2019-01-22T01:56:40.981Z,93.04
2019-01-22T01:57:40.959Z,92.76
2019-01-22T01:58:40.967Z,93.42
2019-01-22T01:59:40.973Z,92.85
2019-01-22T02:00:41.000Z,92.76
2019-01-22T02:01:40.995Z,93.23
2019-01-22T02:02:41.000Z,92.76
2019-01-22T02:03:41.021Z,92.29
2019-01-22T02:04:41.046Z,92.66
2019-01-22T02:05:41.052Z,92.95
2019-01-22T02:06:41.031Z,92.95
2019-01-22T02:07:41.056Z,92.95
2019-01-22T02:08:41.062Z,92.95
2019-01-22T02:09:41.063Z,92.76
2019-01-22T02:10:41.111Z,92.85
2019-01-22T02:11:41.082Z,92.76
2019-01-22T02:12:41.114Z,92.66
2019-01-22T02:13:41.111Z,92.85
2019-01-22T02:14:41.091Z,93.23
2019-01-22T02:15:41.106Z,93.13
2019-01-22T02:16:41.156Z,92.95
2019-01-22T02:17:41.140Z,92.95
2019-01-22T02:18:41.131Z,92.38
2019-01-22T02:19:41.160Z,92.29
2019-01-22T02:20:41.214Z,92.47
2019-01-22T02:21:41.178Z,92.85
2019-01-22T02:22:41.208Z,93.23
2019-01-22T02:23:41.175Z,93.32
2019-01-22T02:24:41.188Z,93.04
2019-01-22T02:25:41.191Z,92.85
2019-01-22T02:26:41.220Z,92.66
2019-01-22T02:27:41.203Z,92.29
2019-01-22T02:28:41.236Z,92.66
2019-01-22T02:29:41.227Z,92.66
2019-01-22T02:30:41.235Z,92.57
2019-01-22T02:31:41.242Z,92.66
2019-01-22T02:32:41.266Z,92.57
2019-01-22T02:33:41.315Z,93.51
2019-01-22T02:34:41.279Z,93.42
2019-01-22T02:35:41.270Z,93.23
2019-01-22T02:36:41.320Z,92.47
2019-01-22T02:37:41.288Z,92.10
2019-01-22T02:38:41.353Z,92.47
2019-01-22T02:39:41.312Z,92.76
2019-01-22T02:40:41.322Z,92.95
2019-01-22T02:41:41.318Z,92.66
2019-01-22T02:42:41.344Z,92.95
2019-01-22T02:43:41.353Z,92.85
2019-01-22T02:44:41.356Z,92.95
2019-01-22T02:45:41.353Z,92.95
2019-01-22T02:46:41.401Z,93.13
2019-01-22T02:47:41.384Z,93.23
2019-01-22T02:48:41.385Z,92.85
2019-01-22T02:49:41.394Z,92.95
2019-01-22T02:50:41.407Z,92.66
2019-01-22T02:51:41.406Z,92.95
2019-01-22T02:52:41.414Z,92.66
2019-01-22T02:53:41.424Z,92.95
2019-01-22T02:54:41.432Z,92.76
2019-01-22T02:55:41.523Z,92.85
2019-01-22T02:56:41.444Z,92.76
2019-01-22T02:57:41.458Z,92.10
2019-01-22T02:58:41.462Z,91.63
2019-01-22T02:59:41.488Z,92.47
2019-01-22T03:00:41.511Z,92.00
2019-01-22T03:01:41.485Z,92.29
2019-01-22T03:02:41.526Z,92.76
2019-01-22T03:03:41.526Z,92.47
2019-01-22T03:04:41.509Z,91.72
2019-01-22T03:05:41.519Z,91.72
2019-01-22T03:06:41.531Z,92.57
2019-01-22T03:07:41.535Z,92.57
2019-01-22T03:08:41.541Z,91.53
2019-01-22T03:09:41.610Z,91.44
2019-01-22T03:10:41.556Z,91.82
2019-01-22T03:11:41.576Z,92.29
2019-01-22T03:12:41.575Z,92.66
2019-01-22T03:13:41.580Z,92.47
2019-01-22T03:14:41.603Z,92.47
2019-01-22T03:15:41.597Z,92.57
2019-01-22T03:16:41.621Z,92.47
2019-01-22T03:17:41.635Z,92.95
2019-01-22T03:18:41.666Z,92.38
2019-01-22T03:19:41.657Z,92.76
2019-01-22T03:20:41.639Z,92.10
2019-01-22T03:21:41.681Z,91.44
2019-01-22T03:22:41.681Z,92.00
2019-01-22T03:23:46.344Z,92.85
2019-01-22T03:24:41.690Z,92.10
2019-01-22T03:25:41.687Z,91.63
2019-01-22T03:26:41.762Z,92.57
2019-01-22T03:27:41.701Z,91.16
2019-01-22T03:28:41.705Z,91.82
2019-01-22T03:29:41.774Z,91.72
2019-01-22T03:30:41.735Z,91.72
2019-01-22T03:31:41.787Z,91.82
2019-01-22T03:32:41.745Z,92.19
2019-01-22T03:33:41.770Z,92.76
2019-01-22T03:34:41.762Z,92.10
2019-01-22T03:35:41.851Z,91.82
2019-01-22T03:36:41.842Z,91.82
2019-01-22T03:37:41.792Z,91.35
2019-01-22T03:38:41.876Z,91.53
2019-01-22T03:39:41.801Z,91.72
2019-01-22T03:40:41.806Z,92.19
2019-01-22T03:41:41.812Z,91.82
2019-01-22T03:42:41.833Z,91.06
2019-01-22T03:43:41.831Z,91.53
2019-01-22T03:44:41.867Z,91.53
2019-01-22T03:45:41.893Z,92.10
2019-01-22T03:46:41.890Z,91.91
2019-01-22T03:47:41.867Z,92.00
2019-01-22T03:48:41.879Z,91.82
2019-01-22T03:49:41.915Z,92.00
2019-01-22T03:50:41.908Z,92.47
2019-01-22T03:51:41.908Z,92.38
2019-01-22T03:52:41.905Z,92.10
2019-01-22T03:53:41.933Z,91.82
2019-01-22T03:54:41.945Z,91.91
2019-01-22T03:55:41.937Z,91.82
2019-01-22T03:56:41.954Z,91.35
2019-01-22T03:57:41.944Z,91.91
2019-01-22T03:58:42.019Z,92.00
2019-01-22T03:59:41.968Z,92.47
2019-01-22T04:00:41.975Z,92.47
2019-01-22T04:01:41.980Z,92.57
2019-01-22T04:02:41.985Z,92.66
2019-01-22T04:03:41.991Z,91.91
2019-01-22T04:04:41.996Z,91.82
2019-01-22T04:05:42.007Z,91.82
2019-01-22T04:06:42.031Z,92.10
2019-01-22T04:07:42.018Z,91.82
2019-01-22T04:08:42.030Z,91.53
2019-01-22T04:09:42.047Z,90.69
2019-01-22T04:10:42.055Z,91.53
2019-01-22T04:11:42.065Z,91.63
2019-01-22T04:12:42.091Z,91.91
2019-01-22T04:13:42.107Z,91.35
2019-01-22T04:14:42.140Z,91.53
2019-01-22T04:15:42.102Z,92.10
2019-01-22T04:16:42.101Z,91.53
2019-01-22T04:17:42.130Z,91.63
2019-01-22T04:18:42.160Z,91.91
2019-01-22T04:19:42.139Z,92.00
2019-01-22T04:20:42.153Z,92.47
2019-01-22T04:21:42.229Z,92.47
2019-01-22T04:22:42.149Z,92.19
2019-01-22T04:23:42.157Z,92.57
2019-01-22T04:24:42.177Z,92.47
2019-01-22T04:25:42.177Z,92.57
2019-01-22T04:26:42.179Z,92.00
2019-01-22T04:27:42.200Z,92.57
2019-01-22T04:28:42.207Z,92.76
2019-01-22T04:29:42.206Z,92.57
2019-01-22T04:30:42.212Z,92.95
2019-01-22T04:31:42.226Z,92.85
2019-01-22T04:32:42.235Z,92.00
2019-01-22T04:33:42.261Z,92.00
2019-01-22T04:34:42.256Z,92.47
2019-01-22T04:35:42.278Z,92.00
2019-01-22T04:36:42.309Z,92.29
2019-01-22T04:37:42.283Z,91.53
2019-01-22T04:38:42.286Z,90.69
2019-01-22T04:39:42.345Z,91.44
2019-01-22T04:40:42.315Z,90.78
2019-01-22T04:41:42.307Z,92.10
2019-01-22T04:42:42.315Z,92.00
2019-01-22T04:43:42.315Z,91.16
2019-01-22T04:44:42.334Z,91.44
2019-01-22T04:45:42.332Z,92.10
2019-01-22T04:46:42.352Z,92.95
2019-01-22T04:47:42.376Z,92.47
2019-01-22T04:48:42.367Z,92.76
2019-01-22T04:49:42.368Z,92.66
2019-01-22T04:50:42.379Z,92.29
2019-01-22T04:51:42.389Z,91.91
2019-01-22T04:52:42.402Z,91.53
2019-01-22T04:53:42.400Z,91.63
2019-01-22T04:54:42.408Z,91.72
2019-01-22T04:55:42.445Z,91.53
2019-01-22T04:56:42.420Z,91.72
2019-01-22T04:57:42.451Z,91.44
2019-01-22T04:58:42.444Z,91.91
2019-01-22T04:59:42.459Z,92.38
2019-01-22T05:00:42.473Z,92.19
2019-01-22T05:01:42.505Z,91.53
2019-01-22T05:02:42.479Z,92.76
2019-01-22T05:03:42.485Z,92.00
2019-01-22T05:04:42.501Z,91.72
2019-01-22T05:05:42.498Z,91.63
2019-01-22T05:06:42.505Z,91.91
2019-01-22T05:07:42.523Z,91.72
2019-01-22T05:08:42.541Z,91.82
2019-01-22T05:09:42.561Z,90.88
2019-01-22T05:10:42.569Z,91.35
2019-01-22T05:11:42.588Z,91.53
2019-01-22T05:12:42.570Z,91.35
2019-01-22T05:13:42.589Z,91.63
2019-01-22T05:14:42.589Z,91.82
2019-01-22T05:15:42.607Z,91.53
2019-01-22T05:16:42.624Z,91.44
2019-01-22T05:17:42.606Z,91.53
2019-01-22T05:18:42.601Z,91.53
2019-01-22T05:19:42.614Z,90.88
2019-01-22T05:20:42.624Z,90.97
2019-01-22T05:21:42.648Z,90.88
2019-01-22T05:22:42.727Z,90.78
2019-01-22T05:23:42.694Z,91.16
2019-01-22T05:24:42.667Z,91.82
2019-01-22T05:25:42.680Z,91.72
2019-01-22T05:26:42.671Z,91.72
2019-01-22T05:27:42.695Z,91.91
2019-01-22T05:28:42.691Z,91.25
2019-01-22T05:29:42.737Z,90.97
2019-01-22T05:30:42.708Z,90.88
2019-01-22T05:31:42.735Z,90.97
2019-01-22T05:32:42.723Z,90.59
2019-01-22T05:33:42.746Z,91.35
2019-01-22T05:34:42.769Z,91.53
2019-01-22T05:35:42.740Z,91.35
2019-01-22T05:36:42.788Z,91.63
2019-01-22T05:37:42.816Z,91.63
2019-01-22T05:38:42.789Z,91.91
2019-01-22T05:39:42.827Z,91.63
2019-01-22T05:40:42.788Z,90.03
2019-01-22T05:41:42.803Z,90.41
2019-01-22T05:42:42.796Z,90.41
2019-01-22T05:43:42.822Z,90.78
2019-01-22T05:44:42.816Z,91.82
2019-01-22T05:45:42.833Z,91.91
2019-01-22T05:46:42.875Z,91.82
2019-01-22T05:47:42.879Z,89.46
2019-01-22T05:48:42.848Z,89.93
2019-01-22T05:49:42.863Z,90.59
2019-01-22T05:50:42.883Z,91.72
2019-01-22T05:51:42.868Z,90.69
2019-01-22T05:52:42.882Z,91.63
2019-01-22T05:53:42.885Z,91.25
2019-01-22T05:54:42.956Z,91.82
2019-01-22T05:55:42.912Z,91.53
2019-01-22T05:56:42.961Z,91.44
2019-01-22T05:57:42.929Z,91.35
2019-01-22T05:58:42.938Z,90.50
2019-01-22T05:59:42.942Z,90.73
2019-01-22T06:00:42.949Z,90.88
2019-01-22T06:01:42.952Z,91.44
2019-01-22T06:02:42.998Z,90.92
2019-01-22T06:03:42.971Z,91.58
2019-01-22T06:04:42.989Z,90.83
2019-01-22T06:05:42.989Z,88.09
2019-01-22T06:06:42.994Z,88.94
2019-01-22T06:07:43.026Z,88.18
2019-01-22T06:08:43.045Z,88.47
2019-01-22T06:09:43.074Z,90.07
2019-01-22T06:10:43.108Z,89.41
2019-01-22T06:11:43.034Z,90.07
2019-01-22T06:12:43.049Z,87.43
2019-01-22T06:13:43.075Z,83.37
2019-01-22T06:14:43.059Z,87.34
2019-01-22T06:15:43.072Z,84.13
2019-01-22T06:16:43.081Z,87.15
2019-01-22T06:17:43.179Z,86.87
2019-01-22T06:18:43.095Z,87.43
2019-01-22T06:19:43.113Z,87.24
2019-01-22T06:20:43.120Z,89.22
2019-01-22T06:21:43.151Z,89.69
2019-01-22T06:22:43.144Z,88.84
2019-01-22T06:23:43.167Z,87.43
2019-01-22T06:24:43.186Z,86.87
2019-01-22T06:25:49.403Z,87.43
2019-01-22T06:26:43.200Z,87.90
2019-01-22T06:27:43.171Z,89.03
2019-01-22T06:28:43.207Z,87.99
2019-01-22T06:29:43.192Z,86.96
2019-01-22T06:30:43.198Z,87.34
2019-01-22T06:31:43.219Z,87.62
2019-01-22T06:32:43.223Z,87.34
2019-01-22T06:33:43.277Z,87.52
2019-01-22T06:34:43.231Z,87.71
2019-01-22T06:35:43.290Z,87.99
2019-01-22T06:36:43.275Z,87.52
2019-01-22T06:37:43.261Z,88.84
2019-01-22T06:38:43.263Z,87.71
2019-01-22T06:39:43.272Z,87.81
2019-01-22T06:40:43.291Z,88.28
2019-01-22T06:41:43.318Z,88.09
2019-01-22T06:42:43.349Z,88.09
2019-01-22T06:43:43.342Z,87.24
2019-01-22T06:44:43.320Z,85.26
2019-01-22T06:45:43.352Z,87.34
2019-01-22T06:46:43.374Z,87.81
2019-01-22T06:47:43.344Z,89.60
2019-01-22T06:48:43.364Z,88.56
2019-01-22T06:49:43.367Z,89.60
2019-01-22T06:50:43.418Z,89.13
2019-01-22T06:51:43.372Z,88.28
2019-01-22T06:52:43.413Z,87.62
2019-01-22T06:53:43.409Z,88.18
2019-01-22T06:54:43.407Z,87.81
2019-01-22T06:55:43.415Z,87.43
2019-01-22T06:56:43.427Z,87.81
2019-01-22T06:57:43.442Z,88.37
2019-01-22T06:58:43.449Z,88.28
2019-01-22T06:59:43.447Z,87.15
2019-01-22T07:00:43.454Z,87.52
2019-01-22T07:01:43.460Z,87.34
2019-01-22T07:02:43.478Z,86.49
2019-01-22T07:03:43.482Z,86.87
2019-01-22T07:04:43.500Z,87.90
2019-01-22T07:05:43.501Z,86.87
2019-01-22T07:06:43.509Z,87.52
2019-01-22T07:07:43.524Z,86.96
2019-01-22T07:08:43.534Z,86.40
2019-01-22T07:09:43.539Z,86.77
2019-01-22T07:10:43.550Z,87.00
2019-01-22T07:11:43.553Z,88.13
2019-01-22T07:12:43.569Z,88.04
2019-01-22T07:13:43.578Z,88.89
2019-01-22T07:14:43.648Z,87.48
2019-01-22T07:15:43.610Z,87.19
2019-01-22T07:16:43.594Z,87.95
2019-01-22T07:17:43.625Z,88.23
2019-01-22T07:18:43.677Z,88.23
2019-01-22T07:19:43.637Z,88.32
2019-01-22T07:20:43.630Z,89.17
2019-01-22T07:21:43.658Z,89.27
2019-01-22T07:22:43.664Z,89.17
2019-01-22T07:23:43.678Z,88.98
2019-01-22T07:24:46.801Z,88.98
2019-01-22T07:25:43.673Z,87.95
2019-01-22T07:26:44.084Z,88.51
2019-01-22T07:27:43.688Z,88.51
2019-01-22T07:28:43.727Z,88.89
2019-01-22T07:29:43.721Z,89.36
2019-01-22T07:30:43.721Z,90.21
2019-01-22T07:31:43.747Z,89.64
2019-01-22T07:32:43.810Z,89.36
2019-01-22T07:33:43.803Z,89.27
2019-01-22T07:34:43.760Z,87.66
2019-01-22T07:35:43.770Z,88.13
2019-01-22T07:36:43.807Z,89.74
2019-01-22T07:37:43.830Z,89.36
2019-01-22T07:38:43.795Z,89.36
2019-01-22T07:39:43.800Z,89.17
2019-01-22T07:40:43.826Z,89.08
2019-01-22T07:41:43.820Z,89.55
2019-01-22T07:42:43.830Z,89.17
2019-01-22T07:43:43.860Z,88.04
2019-01-22T07:44:43.858Z,88.98
2019-01-22T07:45:43.860Z,89.17
2019-01-22T07:46:43.869Z,88.04
2019-01-22T07:47:43.885Z,88.70
2019-01-22T07:48:43.903Z,89.36
2019-01-22T07:49:43.905Z,88.89
2019-01-22T07:50:43.907Z,89.74
2019-01-22T07:51:43.935Z,90.02
2019-01-22T07:52:43.950Z,91.44
2019-01-22T07:53:43.947Z,89.93
2019-01-22T07:54:43.970Z,89.55
2019-01-22T07:55:43.958Z,89.83
2019-01-22T07:56:44.000Z,89.45
2019-01-22T07:57:44.009Z,91.06
2019-01-22T07:58:43.983Z,89.17
2019-01-22T07:59:44.013Z,89.17
2019-01-22T08:00:44.008Z,89.59
2019-01-22T08:01:44.009Z,90.35
2019-01-22T08:02:44.014Z,91.20
2019-01-22T08:03:44.055Z,91.86
2019-01-22T08:04:44.041Z,92.43
2019-01-22T08:05:44.043Z,92.47
2019-01-22T08:06:44.100Z,95.03
2019-01-22T08:07:44.093Z,93.80
2019-01-22T08:08:44.074Z,95.12
2019-01-22T08:09:44.112Z,94.65
2019-01-22T08:10:44.116Z,93.70
2019-01-22T08:11:44.121Z,92.47
2019-01-22T08:12:44.136Z,94.18
2019-01-22T08:13:44.157Z,94.46
2019-01-22T08:14:44.135Z,95.40
2019-01-22T08:15:44.181Z,95.21
2019-01-22T08:16:44.165Z,95.40
2019-01-22T08:17:44.162Z,94.79
2019-01-22T08:18:44.189Z,95.92
2019-01-22T08:19:44.192Z,94.70
2019-01-22T08:20:44.205Z,93.51
2019-01-22T08:21:44.211Z,94.74
2019-01-22T08:22:44.217Z,94.60
2019-01-22T08:23:44.228Z,95.54
2019-01-22T08:24:44.244Z,94.41
2019-01-22T08:25:44.297Z,95.64
2019-01-22T08:26:44.264Z,95.17
2019-01-22T08:27:44.282Z,95.64
2019-01-22T08:28:44.314Z,94.51
2019-01-22T08:29:44.304Z,95.73
2019-01-22T08:30:44.308Z,96.02
2019-01-22T08:31:44.328Z,96.02
2019-01-22T08:32:44.323Z,94.98
2019-01-22T08:33:44.378Z,95.36
2019-01-22T08:34:44.373Z,95.45
2019-01-22T08:35:44.390Z,95.17
2019-01-22T08:36:44.376Z,95.64
2019-01-22T08:37:44.425Z,94.70
2019-01-22T08:38:44.383Z,93.94
2019-01-22T08:39:44.399Z,94.79
2019-01-22T08:40:44.408Z,94.70
2019-01-22T08:41:44.430Z,94.89
2019-01-22T08:42:44.451Z,94.60
2019-01-22T08:43:44.482Z,94.70
2019-01-22T08:44:44.458Z,93.28
2019-01-22T08:45:44.469Z,94.51
2019-01-22T08:46:44.485Z,94.98
2019-01-22T08:47:44.490Z,93.32
2019-01-22T08:48:44.499Z,91.72
2019-01-22T08:49:44.514Z,92.85
2019-01-22T08:50:44.533Z,92.94
2019-01-22T08:51:44.530Z,91.82
2019-01-22T08:52:44.540Z,91.82
2019-01-22T08:53:44.555Z,92.38
2019-01-22T08:54:44.565Z,91.34
2019-01-22T08:55:44.585Z,90.54
2019-01-22T08:56:44.587Z,90.77
2019-01-22T08:57:44.636Z,91.34
2019-01-22T08:58:44.612Z,92.85
2019-01-22T08:59:44.631Z,93.13
2019-01-22T09:00:44.639Z,92.00
2019-01-22T09:01:44.643Z,91.44
2019-01-22T09:02:44.664Z,91.72
2019-01-22T09:03:44.712Z,91.20
2019-01-22T09:04:44.684Z,92.47
2019-01-22T09:05:44.689Z,93.13
2019-01-22T09:06:44.744Z,92.38
2019-01-22T09:07:44.748Z,92.57
2019-01-22T09:08:44.728Z,91.53
2019-01-22T09:09:44.738Z,91.15
2019-01-22T09:10:44.745Z,91.15
2019-01-22T09:11:44.769Z,92.10
2019-01-22T09:12:44.768Z,92.10
2019-01-22T09:13:44.773Z,91.72
2019-01-22T09:14:44.790Z,91.82
2019-01-22T09:15:44.801Z,92.76
2019-01-22T09:16:44.809Z,91.15
2019-01-22T09:17:44.835Z,91.53
2019-01-22T09:18:44.850Z,92.00
2019-01-22T09:19:44.899Z,92.00
2019-01-22T09:20:44.856Z,92.57
2019-01-22T09:21:44.876Z,92.10
2019-01-22T09:22:44.911Z,92.38
2019-01-22T09:23:44.894Z,93.51
2019-01-22T09:24:44.895Z,93.13
2019-01-22T09:25:44.898Z,93.80
2019-01-22T09:26:44.921Z,92.19
2019-01-22T09:27:44.933Z,92.38
2019-01-22T09:28:44.985Z,92.19
2019-01-22T09:29:44.968Z,92.38
2019-01-22T09:30:44.973Z,92.00
2019-01-22T09:31:44.977Z,92.66
2019-01-22T09:32:44.986Z,93.42
2019-01-22T09:33:45.002Z,93.80
2019-01-22T09:34:45.003Z,92.90
2019-01-22T09:35:45.031Z,92.99
2019-01-22T09:36:45.033Z,94.32
2019-01-22T09:37:45.042Z,93.32
2019-01-22T09:38:45.049Z,93.32
2019-01-22T09:39:45.116Z,93.42
2019-01-22T09:40:45.068Z,92.94
2019-01-22T09:41:45.098Z,92.85
2019-01-22T09:42:45.133Z,92.66
2019-01-22T09:43:45.118Z,92.47
2019-01-22T09:44:45.121Z,92.29
2019-01-22T09:45:45.145Z,93.13
2019-01-22T09:46:45.181Z,93.61
2019-01-22T09:47:45.189Z,93.42
2019-01-22T09:48:45.191Z,92.19
2019-01-22T09:49:45.205Z,93.13
2019-01-22T09:50:45.220Z,93.23
2019-01-22T09:51:45.199Z,93.89
2019-01-22T09:52:45.208Z,94.98
2019-01-22T09:53:45.252Z,94.41
2019-01-22T09:54:45.230Z,94.89
2019-01-22T09:55:45.290Z,93.75
2019-01-22T09:56:45.247Z,94.98
2019-01-22T09:57:45.262Z,93.66
2019-01-22T09:58:45.295Z,94.13
2019-01-22T09:59:45.282Z,92.90
2019-01-22T10:00:45.304Z,93.75
2019-01-22T10:01:45.326Z,93.13
2019-01-22T10:02:45.337Z,94.22
2019-01-22T10:03:45.356Z,93.84
2019-01-22T10:04:45.386Z,92.19
2019-01-22T10:05:45.370Z,93.89
2019-01-22T10:06:45.381Z,93.70
2019-01-22T10:07:45.397Z,93.94
2019-01-22T10:08:45.399Z,93.37
2019-01-22T10:09:45.430Z,93.70
2019-01-22T10:10:45.423Z,93.47
2019-01-22T10:11:45.422Z,93.94
2019-01-22T10:12:45.442Z,93.66
2019-01-22T10:13:48.225Z,93.47
2019-01-22T10:14:45.471Z,93.47
2019-01-22T10:15:45.477Z,94.60
2019-01-22T10:16:45.494Z,94.60
2019-01-22T10:17:45.494Z,94.13
2019-01-22T10:18:45.509Z,93.28
2019-01-22T10:19:45.530Z,94.03
2019-01-22T10:20:45.529Z,93.84
2019-01-22T10:21:45.706Z,92.90
2019-01-22T10:22:45.588Z,92.47
2019-01-22T10:23:46.883Z,92.76
2019-01-22T10:24:45.589Z,93.23
2019-01-22T10:25:45.594Z,92.57
2019-01-22T10:26:45.599Z,92.94
2019-01-22T10:27:45.621Z,92.38
2019-01-22T10:28:45.646Z,92.71
2019-01-22T10:29:45.660Z,94.22
2019-01-22T10:30:45.644Z,92.38
2019-01-22T10:31:45.676Z,93.42
2019-01-22T10:32:45.695Z,93.61
2019-01-22T10:33:45.762Z,93.23
2019-01-22T10:34:45.700Z,93.23
2019-01-22T10:35:45.707Z,92.47
2019-01-22T10:36:45.744Z,92.29
2019-01-22T10:37:45.731Z,92.00
2019-01-22T10:38:45.741Z,92.19
2019-01-22T10:39:45.801Z,92.38
2019-01-22T10:40:45.768Z,93.04
2019-01-22T10:41:45.773Z,91.53
2019-01-22T10:42:45.804Z,92.47
2019-01-22T10:43:45.849Z,92.38
2019-01-22T10:44:45.885Z,92.66
2019-01-22T10:45:45.842Z,92.47
2019-01-22T10:46:45.870Z,92.61
2019-01-22T10:47:45.853Z,91.77
2019-01-22T10:48:45.867Z,92.29
2019-01-22T10:49:45.889Z,92.33
2019-01-22T10:50:45.887Z,91.34
2019-01-22T10:51:45.994Z,91.44
2019-01-22T10:52:45.905Z,90.02
2019-01-22T10:53:46.004Z,91.25
2019-01-22T10:54:45.924Z,91.25
2019-01-22T10:55:45.939Z,91.34
2019-01-22T10:56:45.960Z,91.77
2019-01-22T10:57:45.961Z,91.48
2019-01-22T10:58:45.971Z,92.52
2019-01-22T10:59:45.995Z,92.24
2019-01-22T11:00:46.039Z,92.71
2019-01-22T11:01:46.020Z,92.99
2019-01-22T11:02:46.060Z,92.24
2019-01-22T11:03:46.043Z,92.71
2019-01-22T11:04:46.048Z,91.58
2019-01-22T11:05:46.133Z,91.67
2019-01-22T11:06:46.085Z,92.43
2019-01-22T11:07:46.121Z,92.90
2019-01-22T11:08:46.104Z,93.56
2019-01-22T11:09:46.101Z,91.96
2019-01-22T11:10:46.110Z,92.43
2019-01-22T11:11:46.131Z,93.18
2019-01-22T11:12:46.176Z,93.75
2019-01-22T11:13:46.145Z,92.71
2019-01-22T11:14:46.162Z,91.77
2019-01-22T11:15:46.180Z,91.20
2019-01-22T11:16:46.192Z,92.05
2019-01-22T11:17:46.203Z,93.09
2019-01-22T11:18:46.224Z,93.47
2019-01-22T11:19:46.263Z,94.27
2019-01-22T11:20:46.269Z,91.81
2019-01-22T11:21:46.252Z,92.66
2019-01-22T11:22:46.270Z,92.99
2019-01-22T11:23:46.302Z,92.80
2019-01-22T11:24:46.291Z,93.37
2019-01-22T11:25:46.319Z,93.13
2019-01-22T11:26:46.303Z,92.33
2019-01-22T11:27:46.328Z,92.71
2019-01-22T11:28:46.333Z,93.37
2019-01-22T11:29:46.348Z,93.09
2019-01-22T11:30:46.369Z,91.01
2019-01-22T11:31:46.376Z,92.43
2019-01-22T11:32:46.385Z,92.14
2019-01-22T11:33:46.410Z,92.24
2019-01-22T11:34:46.431Z,92.61
2019-01-22T11:35:46.437Z,92.43
2019-01-22T11:36:46.507Z,92.71
2019-01-22T11:37:46.459Z,93.37
2019-01-22T11:38:46.448Z,91.39
2019-01-22T11:39:46.468Z,92.24
2019-01-22T11:40:46.542Z,92.90
2019-01-22T11:41:46.490Z,92.71
2019-01-22T11:42:46.509Z,92.71
2019-01-22T11:43:46.524Z,91.86
2019-01-22T11:44:46.555Z,92.52
2019-01-22T11:45:46.537Z,92.43
2019-01-22T11:46:47.564Z,92.71
2019-01-22T11:47:46.572Z,92.24
2019-01-22T11:48:46.582Z,92.80
2019-01-22T11:49:46.607Z,92.52
2019-01-22T11:50:46.696Z,91.96
2019-01-22T11:51:46.634Z,92.14
2019-01-22T11:52:46.639Z,92.24
2019-01-22T11:53:46.639Z,91.58
2019-01-22T11:54:46.657Z,91.86
2019-01-22T11:55:50.457Z,93.09
2019-01-22T11:56:46.669Z,92.80
2019-01-22T11:57:46.679Z,91.77
2019-01-22T11:58:46.693Z,92.80
2019-01-22T11:59:46.721Z,93.51
2019-01-22T12:00:46.723Z,93.70
2019-01-22T12:01:46.728Z,93.32
2019-01-22T12:02:46.743Z,93.42
2019-01-22T12:03:46.824Z,91.58
2019-01-22T12:04:46.766Z,92.33
2019-01-22T12:05:46.774Z,94.03
2019-01-22T12:06:46.787Z,93.70
2019-01-22T12:07:46.801Z,94.27
2019-01-22T12:08:46.814Z,93.47
2019-01-22T12:09:46.845Z,92.47
2019-01-22T12:10:46.902Z,93.28
2019-01-22T12:11:46.892Z,93.32
2019-01-22T12:12:46.862Z,94.37
2019-01-22T12:13:53.845Z,94.46
2019-01-22T12:14:46.927Z,93.89
2019-01-22T12:15:46.927Z,93.04
2019-01-22T12:16:46.920Z,93.09
2019-01-22T12:17:46.922Z,93.18
2019-01-22T12:18:46.986Z,94.65
2019-01-22T12:19:46.952Z,94.37
2019-01-22T12:20:46.977Z,95.12
2019-01-22T12:21:46.994Z,94.22
2019-01-22T12:22:47.018Z,93.66
2019-01-22T12:23:47.026Z,93.99
2019-01-22T12:24:47.023Z,93.61
2019-01-22T12:25:47.023Z,93.09
2019-01-22T12:26:47.031Z,93.32
2019-01-22T12:27:47.074Z,93.80
2019-01-22T12:28:47.057Z,93.51
2019-01-22T12:29:47.092Z,94.84
2019-01-22T12:30:47.121Z,93.89
2019-01-22T12:31:47.098Z,93.56
2019-01-22T12:32:47.116Z,92.99
2019-01-22T12:33:47.121Z,94.13
2019-01-22T12:34:47.163Z,94.18
2019-01-22T12:35:47.146Z,93.18
2019-01-22T12:36:47.174Z,92.71
2019-01-22T12:37:47.171Z,92.99
2019-01-22T12:38:47.189Z,93.37
2019-01-22T12:39:47.194Z,93.18
2019-01-22T12:40:47.205Z,93.37
2019-01-22T12:41:47.218Z,92.90
2019-01-22T12:42:47.240Z,93.18
2019-01-22T12:43:47.269Z,93.18
2019-01-22T12:44:47.308Z,92.71
2019-01-22T12:45:47.280Z,93.09
2019-01-22T12:46:47.304Z,92.90
2019-01-22T12:47:47.304Z,92.61
2019-01-22T12:48:47.295Z,94.03
2019-01-22T12:49:47.402Z,94.03
2019-01-22T12:50:47.337Z,93.47
2019-01-22T12:51:47.340Z,92.24
2019-01-22T12:52:47.347Z,92.71